Time;durP1;ratioP1;P1;durP2;ratioP2;P2;SDS_P1;SDS_P2;PMS_P1;PMS_P2;Temp;Humidity;BMP_temperature;BMP_pressure;BME280_temperature;BME280_humidity;BME280_pressure;Samples;Min_cycle;Max_cycle;Signal;HPM_P1;HPM_P2
2021/07/21 00:05:15;;;;;;;10.67;7.27;;;19.60;76.90;;;;;;10452132;28;20203;-29
2021/07/21 00:10:38;;;;;;;8.73;6.87;;;19.60;77.10;;;;;;10449785;28;20217;-32
2021/07/21 00:16:12;;;;;;;9.20;7.47;;;19.60;77.10;;;;;;10491425;28;20220;-29
2021/07/21 00:21:35;;;;;;;8.67;6.47;;;19.70;77.00;;;;;;10477060;28;20228;-30
2021/07/21 00:26:57;;;;;;;8.67;6.70;;;19.60;77.00;;;;;;10464797;28;20193;-30
2021/07/21 00:32:19;;;;;;;12.27;7.60;;;19.60;77.10;;;;;;10458595;28;20672;-31
2021/07/21 00:37:43;;;;;;;10.40;7.13;;;19.60;77.30;;;;;;10494246;28;20200;-31
2021/07/21 00:43:05;;;;;;;10.90;7.33;;;19.60;77.40;;;;;;10499312;28;20205;-28
2021/07/21 00:48:27;;;;;;;10.23;7.30;;;19.60;77.60;;;;;;10498805;28;20196;-34
2021/07/21 00:53:51;;;;;;;10.00;7.23;;;19.60;77.70;;;;;;10497041;28;20216;-33
2021/07/21 00:59:13;;;;;;;10.53;7.43;;;19.50;77.90;;;;;;10477975;28;20698;-28
2021/07/21 01:04:37;;;;;;;10.23;7.30;;;19.50;77.90;;;;;;10497643;28;20220;-29
2021/07/21 01:10:01;;;;;;;10.03;7.73;;;19.60;78.10;;;;;;10491444;28;20204;-30
2021/07/21 01:15:32;;;;;;;11.53;7.27;;;19.50;78.20;;;;;;10488559;28;20217;-30
2021/07/21 01:21:18;;;;;;;9.60;7.27;;;19.50;78.30;;;;;;10489408;28;20228;-29
2021/07/21 01:26:48;;;;;;;9.50;7.23;;;19.60;78.10;;;;;;10455277;28;20196;-30
2021/07/21 01:32:13;;;;;;;11.80;7.37;;;19.50;78.50;;;;;;10454917;28;20209;-30
2021/07/21 01:37:39;;;;;;;9.07;7.63;;;19.50;78.60;;;;;;10463291;28;20199;-33
2021/07/21 01:43:03;;;;;;;10.97;7.70;;;19.50;78.60;;;;;;10455018;28;20219;-30
2021/07/21 01:48:27;;;;;;;12.67;8.43;;;19.50;78.70;;;;;;10455956;28;20211;-29
2021/07/21 01:53:50;;;;;;;11.20;7.90;;;19.50;78.50;;;;;;10455383;28;20220;-29
2021/07/21 01:59:12;;;;;;;10.63;7.90;;;19.50;79.00;;;;;;10463907;28;20213;-33
2021/07/21 02:04:38;;;;;;;12.80;7.93;;;19.50;79.00;;;;;;10462097;28;20220;-30
2021/07/21 02:10:01;;;;;;;10.17;7.67;;;19.50;79.00;;;;;;10454689;28;20196;-29
2021/07/21 02:15:24;;;;;;;9.77;7.47;;;19.40;79.10;;;;;;10454344;28;20217;-30
2021/07/21 02:20:50;;;;;;;10.43;7.53;;;19.50;79.10;;;;;;10485332;28;20239;-30
2021/07/21 02:26:12;;;;;;;9.30;7.13;;;19.40;79.30;;;;;;10453399;28;20675;-30
2021/07/21 02:31:38;;;;;;;11.80;8.93;;;19.40;79.00;;;;;;10458880;28;20213;-33
2021/07/21 02:37:04;;;;;;;11.60;8.13;;;19.40;79.30;;;;;;10454766;28;20209;-30
2021/07/21 02:42:26;;;;;;;9.77;7.57;;;19.40;79.50;;;;;;10493173;28;20223;-31
2021/07/21 02:47:48;;;;;;;10.07;7.33;;;19.40;79.70;;;;;;10492815;28;20203;-30
2021/07/21 02:53:14;;;;;;;12.33;7.77;;;19.40;79.80;;;;;;10493544;28;20722;-33
2021/07/21 02:58:44;;;;;;;12.03;8.03;;;19.30;80.00;;;;;;10451354;28;20209;-29
2021/07/21 03:04:07;;;;;;;10.57;7.70;;;19.30;80.10;;;;;;10451451;28;20209;-30
2021/07/21 03:09:31;;;;;;;13.10;8.53;;;19.30;79.90;;;;;;10476599;28;20204;-33
2021/07/21 03:14:55;;;;;;;10.17;7.80;;;19.30;80.20;;;;;;10477208;28;20744;-34
2021/07/21 03:25:37;;;;;;;10.13;7.93;;;19.30;80.00;;;;;;10373465;28;20230;-23
2021/07/21 03:31:00;;;;;;;9.77;7.90;;;19.30;80.30;;;;;;10409467;28;20696;-24
2021/07/21 03:36:23;;;;;;;10.47;8.10;;;19.30;80.30;;;;;;10380186;28;20210;-24
2021/07/21 03:41:48;;;;;;;11.20;7.90;;;19.30;80.00;;;;;;10380701;28;20224;-26
2021/07/21 03:47:13;;;;;;;10.10;6.90;;;19.40;80.00;;;;;;10400806;28;20684;-23
2021/07/21 03:52:36;;;;;;;11.60;7.60;;;19.40;79.90;;;;;;10409117;28;20218;-24
2021/07/21 03:58:00;;;;;;;10.97;7.73;;;19.40;79.90;;;;;;10400375;28;20693;-24
2021/07/21 04:03:24;;;;;;;10.27;7.33;;;19.40;79.80;;;;;;10412751;28;20240;-23
2021/07/21 04:08:47;;;;;;;9.97;7.83;;;19.40;79.80;;;;;;10417316;28;20198;-24
2021/07/21 04:14:14;;;;;;;11.90;7.93;;;19.40;79.70;;;;;;10408507;28;20222;-25
2021/07/21 04:19:36;;;;;;;10.90;8.10;;;19.30;79.90;;;;;;10412865;28;20192;-24
2021/07/21 04:25:01;;;;;;;10.07;8.00;;;19.30;79.90;;;;;;10377306;28;20219;-24
2021/07/21 04:30:24;;;;;;;11.03;8.63;;;19.40;80.20;;;;;;10376462;28;20700;-24
2021/07/21 04:35:48;;;;;;;10.30;7.87;;;19.40;80.50;;;;;;10377208;28;20221;-25
2021/07/21 04:41:10;;;;;;;9.60;7.80;;;19.30;80.40;;;;;;10386344;28;20218;-25
2021/07/21 04:46:35;;;;;;;10.87;7.70;;;19.40;80.50;;;;;;10388656;28;20210;-24
2021/07/21 04:52:02;;;;;;;9.93;7.53;;;19.40;80.60;;;;;;10375271;28;20219;-25
2021/07/21 04:57:24;;;;;;;12.17;7.83;;;19.40;80.50;;;;;;10397749;28;20222;-24
2021/07/21 05:02:48;;;;;;;10.77;8.77;;;19.40;80.60;;;;;;10394835;28;20590;-24
2021/07/21 05:08:10;;;;;;;13.10;8.20;;;19.50;81.00;;;;;;10395122;28;20198;-25
2021/07/21 05:13:37;;;;;;;11.77;8.43;;;19.40;80.70;;;;;;10396092;28;20225;-26
2021/07/21 05:19:01;;;;;;;13.03;9.20;;;19.50;80.70;;;;;;10391151;28;20285;-25
2021/07/21 05:24:24;;;;;;;13.70;8.40;;;19.50;80.60;;;;;;10387821;28;20230;-25
2021/07/21 05:29:46;;;;;;;10.67;8.37;;;19.70;79.40;;;;;;10373650;28;20202;-23
2021/07/21 05:35:11;;;;;;;12.47;8.10;;;19.80;78.50;;;;;;10393405;28;20218;-24
2021/07/21 05:40:33;;;;;;;13.20;7.97;;;19.80;78.10;;;;;;10392808;28;20692;-23
2021/07/21 05:45:55;;;;;;;11.83;8.07;;;19.90;77.80;;;;;;10402984;28;20581;-23
2021/07/21 05:51:18;;;;;;;9.90;7.67;;;20.00;77.60;;;;;;10411337;28;20229;-23
2021/07/21 05:56:41;;;;;;;11.87;8.40;;;20.00;77.40;;;;;;10395025;28;20222;-23
2021/07/21 06:02:03;;;;;;;13.80;9.03;;;20.00;77.50;;;;;;10384840;28;20226;-23
2021/07/21 06:07:27;;;;;;;11.23;7.60;;;20.00;77.30;;;;;;10387787;28;20194;-25
2021/07/21 06:12:49;;;;;;;11.73;8.13;;;20.10;76.60;;;;;;10411108;28;20234;-23
2021/07/21 06:18:11;;;;;;;11.03;7.63;;;20.10;76.20;;;;;;10397491;28;20577;-24
2021/07/21 06:23:34;;;;;;;12.63;7.70;;;20.20;76.10;;;;;;10403881;28;20225;-23
2021/07/21 06:28:57;;;;;;;9.43;7.30;;;20.20;75.80;;;;;;10411410;28;20197;-25
2021/07/21 06:34:19;;;;;;;9.60;7.27;;;20.30;75.80;;;;;;10413573;28;20214;-24
2021/07/21 06:39:42;;;;;;;9.90;7.80;;;20.30;75.60;;;;;;10412317;28;20478;-23
2021/07/21 06:45:06;;;;;;;9.17;7.00;;;20.30;75.50;;;;;;10408566;28;20218;-24
2021/07/21 06:50:29;;;;;;;11.30;6.93;;;20.40;75.50;;;;;;10376201;28;20671;-23
2021/07/21 06:55:52;;;;;;;9.83;7.17;;;20.40;75.60;;;;;;10381434;28;20578;-24
2021/07/21 07:01:14;;;;;;;8.83;6.87;;;20.40;75.40;;;;;;10369394;28;20575;-24
2021/07/21 07:06:37;;;;;;;11.07;7.10;;;20.40;75.20;;;;;;10367855;28;20256;-23
2021/07/21 07:12:00;;;;;;;10.67;7.10;;;20.40;75.20;;;;;;10394999;28;20264;-25
2021/07/21 07:17:24;;;;;;;9.40;7.00;;;20.40;74.90;;;;;;10381665;28;20222;-25
2021/07/21 07:22:46;;;;;;;7.93;6.67;;;20.50;74.60;;;;;;10393580;28;20229;-23
2021/07/21 07:28:10;;;;;;;8.30;6.83;;;20.40;74.30;;;;;;10409798;28;20691;-24
2021/07/21 07:33:32;;;;;;;10.90;6.83;;;20.40;74.10;;;;;;10411306;28;20222;-23
2021/07/21 07:38:54;;;;;;;9.93;6.40;;;20.50;74.10;;;;;;10371415;28;20210;-23
2021/07/21 07:44:18;;;;;;;7.63;5.83;;;20.50;74.20;;;;;;10369207;28;20211;-23
2021/07/21 07:49:41;;;;;;;8.73;6.30;;;20.40;74.00;;;;;;10369027;28;20620;-24
2021/07/21 07:55:04;;;;;;;11.00;7.37;;;20.50;74.10;;;;;;10385062;28;20229;-23
2021/07/21 08:00:28;;;;;;;7.93;6.43;;;20.50;74.00;;;;;;10394211;28;20199;-24
2021/07/21 08:05:54;;;;;;;10.30;7.27;;;20.50;73.80;;;;;;10409915;28;20197;-23
2021/07/21 08:11:16;;;;;;;9.77;7.17;;;20.50;73.40;;;;;;10409222;28;20245;-23
2021/07/21 08:16:40;;;;;;;14.30;7.43;;;20.50;73.50;;;;;;10399566;28;20214;-23
2021/07/21 08:22:02;;;;;;;9.67;7.30;;;20.50;73.30;;;;;;10386001;28;20229;-25
2021/07/21 08:27:24;;;;;;;10.30;6.13;;;20.50;73.70;;;;;;10394266;28;20195;-24
2021/07/21 08:32:49;;;;;;;9.57;6.70;;;20.50;72.60;;;;;;10368400;28;20594;-25
2021/07/21 08:38:12;;;;;;;14.23;7.00;;;20.60;74.00;;;;;;10380263;28;20229;-23
2021/07/21 08:43:37;;;;;;;11.13;7.30;;;20.40;74.10;;;;;;10405158;28;20233;-26
2021/07/21 08:49:00;;;;;;;10.13;7.10;;;20.40;74.30;;;;;;10399316;28;20252;-24
2021/07/21 08:54:23;;;;;;;9.90;6.77;;;20.40;74.70;;;;;;10405967;28;20642;-24
2021/07/21 08:59:46;;;;;;;8.23;6.10;;;20.50;74.50;;;;;;10393641;28;20195;-24
2021/07/21 09:05:12;;;;;;;8.73;6.63;;;20.60;73.60;;;;;;10413010;28;20212;-24
2021/07/21 09:10:34;;;;;;;10.03;6.10;;;20.60;72.60;;;;;;10399646;28;20198;-23
2021/07/21 09:15:56;;;;;;;7.97;5.80;;;20.70;72.90;;;;;;10383794;28;20237;-24
2021/07/21 09:21:20;;;;;;;9.13;6.30;;;20.80;72.80;;;;;;10384562;28;20594;-24
2021/07/21 09:26:47;;;;;;;11.83;6.13;;;20.90;72.40;;;;;;10441827;23;20229;-29
2021/07/21 09:32:10;;;;;;;12.50;6.67;;;20.90;72.80;;;;;;10426945;28;20696;-32
2021/07/21 09:37:35;;;;;;;8.00;5.97;;;20.90;72.50;;;;;;10398632;28;20351;-30
2021/07/21 09:42:57;;;;;;;13.37;6.07;;;20.90;72.50;;;;;;10409991;28;20214;-29
2021/07/21 09:48:35;;;;;;;9.80;6.03;;;20.80;72.50;;;;;;10404882;28;20205;-29
2021/07/21 09:54:12;;;;;;;8.13;5.90;;;20.80;72.50;;;;;;10390476;28;20618;-29
2021/07/21 09:59:34;;;;;;;6.87;5.60;;;20.70;72.40;;;;;;10411015;28;20190;-29
2021/07/21 10:04:56;;;;;;;8.27;5.47;;;20.70;72.50;;;;;;10393306;28;20222;-29
2021/07/21 10:10:21;;;;;;;7.30;5.57;;;20.70;72.40;;;;;;10371357;28;20190;-30
2021/07/21 10:15:46;;;;;;;7.03;6.00;;;20.70;72.50;;;;;;10374023;28;20222;-28
2021/07/21 10:21:08;;;;;;;6.97;5.03;;;20.70;72.30;;;;;;10401440;28;20199;-28
2021/07/21 10:26:32;;;;;;;7.70;5.43;;;20.70;72.30;;;;;;10384765;28;20232;-28
2021/07/21 10:31:54;;;;;;;6.97;5.03;;;20.70;72.20;;;;;;10412206;28;20679;-29
2021/07/21 10:37:16;;;;;;;7.00;5.53;;;20.70;72.20;;;;;;10411437;28;20220;-28
2021/07/21 10:42:40;;;;;;;7.67;6.27;;;20.70;72.10;;;;;;10411747;28;20213;-28
2021/07/21 10:48:11;;;;;;;6.40;5.80;;;20.60;71.90;;;;;;10411707;28;20692;-31
2021/07/21 10:53:43;;;;;;;10.20;5.43;;;20.70;71.90;;;;;;10401656;28;20311;-28
2021/07/21 10:59:12;;;;;;;7.93;5.47;;;20.70;71.80;;;;;;10395547;28;20582;-29
2021/07/21 11:04:43;;;;;;;6.80;5.93;;;20.70;71.70;;;;;;10411121;28;20737;-28
2021/07/21 11:10:06;;;;;;;7.13;5.40;;;20.70;71.60;;;;;;10407674;28;20200;-29
2021/07/21 11:15:38;;;;;;;6.33;5.37;;;20.70;71.60;;;;;;10404781;28;20214;-29
2021/07/21 11:21:01;;;;;;;8.07;5.60;;;20.70;71.50;;;;;;10379331;28;20252;-31
2021/07/21 11:26:46;;;;;;;9.20;5.50;;;20.70;71.80;;;;;;10409364;28;20233;-28
2021/07/21 11:32:13;;;;;;;7.77;5.10;;;20.70;71.50;;;;;;10368939;28;20551;-28
2021/07/21 11:37:35;;;;;;;7.13;5.40;;;20.80;71.40;;;;;;10395267;28;20210;-30
2021/07/21 11:42:57;;;;;;;7.03;5.37;;;20.80;71.40;;;;;;10406991;28;20213;-29
2021/07/21 11:48:21;;;;;;;6.70;5.10;;;20.80;71.40;;;;;;10409190;28;20553;-30
2021/07/21 11:53:47;;;;;;;9.33;5.43;;;20.80;70.60;;;;;;10401345;28;20222;-27
2021/07/21 11:59:09;;;;;;;7.23;5.17;;;20.80;71.40;;;;;;10386492;28;20586;-31
2021/07/21 12:04:33;;;;;;;7.10;5.00;;;20.70;72.10;;;;;;10368364;28;20602;-27
2021/07/21 12:09:55;;;;;;;8.47;5.30;;;20.80;72.50;;;;;;10376647;28;20202;-28
2021/07/21 12:15:18;;;;;;;7.07;5.27;;;20.70;72.80;;;;;;10376953;28;20218;-26
2021/07/21 12:20:43;;;;;;;7.47;5.37;;;20.80;73.10;;;;;;10416441;28;20197;-28
2021/07/21 12:26:07;;;;;;;7.30;5.43;;;20.70;73.20;;;;;;10416883;28;20221;-34
2021/07/21 12:31:30;;;;;;;6.30;5.07;;;20.70;73.40;;;;;;10417220;28;20669;-29
2021/07/21 12:36:54;;;;;;;7.10;5.63;;;20.70;73.50;;;;;;10395380;28;20242;-30
2021/07/21 12:42:18;;;;;;;7.50;5.63;;;20.70;73.70;;;;;;10379643;28;20197;-29
2021/07/21 12:47:43;;;;;;;5.53;4.83;;;20.70;74.00;;;;;;10407055;28;20575;-29
2021/07/21 12:53:08;;;;;;;7.10;5.23;;;20.70;74.10;;;;;;10375938;28;20217;-29
2021/07/21 12:58:30;;;;;;;7.00;5.20;;;20.70;73.30;;;;;;10386525;28;20710;-28
2021/07/21 13:03:53;;;;;;;7.97;5.50;;;20.70;74.00;;;;;;10387610;28;20493;-28
2021/07/21 13:09:18;;;;;;;6.57;5.97;;;20.70;74.10;;;;;;10375021;28;20198;-28
2021/07/21 13:14:40;;;;;;;8.73;6.87;;;20.70;74.10;;;;;;10385005;28;20828;-28
2021/07/21 13:20:06;;;;;;;7.37;5.60;;;20.70;74.20;;;;;;10374970;28;20199;-26
2021/07/21 13:25:30;;;;;;;7.87;6.27;;;20.70;74.30;;;;;;10414046;28;20221;-27
2021/07/21 13:30:53;;;;;;;7.70;6.07;;;20.70;74.30;;;;;;10382389;28;20240;-28
2021/07/21 13:36:17;;;;;;;8.67;6.23;;;20.70;74.50;;;;;;10410162;28;20218;-28
2021/07/21 13:41:43;;;;;;;14.67;6.03;;;20.70;74.50;;;;;;10414274;28;20190;-27
2021/07/21 13:47:06;;;;;;;8.77;6.03;;;20.70;74.90;;;;;;10414464;28;20217;-28
2021/07/21 13:52:28;;;;;;;9.03;5.77;;;20.70;74.40;;;;;;10413009;28;20198;-30
2021/07/21 13:57:52;;;;;;;14.83;6.40;;;20.70;74.40;;;;;;10381134;28;20245;-28
2021/07/21 14:03:20;;;;;;;7.07;5.53;;;20.70;74.70;;;;;;10384686;28;20222;-28
2021/07/21 14:08:43;;;;;;;10.80;5.93;;;20.70;74.80;;;;;;10373380;28;20198;-28
2021/07/21 14:14:08;;;;;;;10.10;6.07;;;20.70;75.20;;;;;;10408628;28;20295;-28
2021/07/21 14:19:31;;;;;;;7.97;5.63;;;20.60;74.80;;;;;;10393398;28;20220;-29
2021/07/21 14:24:53;;;;;;;8.67;6.30;;;20.60;74.70;;;;;;10372435;28;20226;-29
2021/07/21 14:30:17;;;;;;;7.70;5.57;;;20.60;74.90;;;;;;10370404;28;20190;-28
2021/07/21 14:35:39;;;;;;;10.80;6.27;;;20.60;74.90;;;;;;10399493;28;20299;-29
2021/07/21 14:41:03;;;;;;;6.57;5.40;;;20.60;75.00;;;;;;10397849;28;20193;-29
2021/07/21 14:46:27;;;;;;;8.23;5.50;;;20.60;75.10;;;;;;10410715;28;20234;-30
2021/07/21 14:51:49;;;;;;;9.93;5.90;;;20.60;75.00;;;;;;10412098;28;20197;-28
2021/07/21 14:57:11;;;;;;;8.83;5.93;;;20.60;75.10;;;;;;10401018;28;20731;-28
2021/07/21 15:02:35;;;;;;;13.10;5.83;;;20.60;75.10;;;;;;10402041;28;20202;-28
2021/07/21 15:08:00;;;;;;;8.93;6.17;;;20.60;75.10;;;;;;10409587;28;20197;-30
2021/07/21 15:13:22;;;;;;;8.27;6.23;;;20.60;75.20;;;;;;10400999;28;20218;-28
2021/07/21 15:18:46;;;;;;;9.77;6.10;;;20.50;75.20;;;;;;10397421;28;20715;-29
2021/07/21 15:24:08;;;;;;;6.37;5.53;;;20.60;75.30;;;;;;10431803;23;20502;-25
2021/07/21 15:29:32;;;;;;;10.97;6.20;;;20.60;75.50;;;;;;10416316;28;20181;-24
2021/07/21 15:34:55;;;;;;;6.37;5.13;;;20.60;75.50;;;;;;10412007;28;20246;-25
2021/07/21 15:40:19;;;;;;;9.40;6.23;;;20.50;75.40;;;;;;10382750;28;20692;-23
2021/07/21 15:45:41;;;;;;;7.90;5.87;;;20.50;75.60;;;;;;10409487;28;20218;-24
2021/07/21 15:51:05;;;;;;;7.10;5.40;;;20.50;75.70;;;;;;10419479;28;20193;-24
2021/07/21 15:56:29;;;;;;;7.30;5.97;;;20.50;75.70;;;;;;10419661;28;20217;-23
2021/07/21 16:01:52;;;;;;;7.23;5.57;;;20.40;75.70;;;;;;10398837;28;20329;-23
2021/07/21 16:07:15;;;;;;;6.33;5.23;;;20.40;75.70;;;;;;10384402;28;20660;-23
2021/07/21 16:12:38;;;;;;;5.77;4.93;;;20.50;75.80;;;;;;10377193;28;20194;-23
2021/07/21 16:18:00;;;;;;;6.33;5.20;;;20.50;75.80;;;;;;10376684;28;20294;-23
2021/07/21 16:23:23;;;;;;;7.90;6.07;;;20.50;75.60;;;;;;10405229;28;20681;-23
2021/07/21 16:28:45;;;;;;;5.67;5.03;;;20.50;75.70;;;;;;10418468;28;20205;-25
2021/07/21 16:34:07;;;;;;;8.60;5.57;;;20.50;75.70;;;;;;10387529;28;20225;-23
2021/07/21 16:39:31;;;;;;;6.73;5.13;;;20.40;75.60;;;;;;10336265;28;20694;-22
2021/07/21 16:44:53;;;;;;;6.03;5.07;;;20.40;75.60;;;;;;10337286;28;20222;-20
2021/07/21 16:50:19;;;;;;;6.03;5.33;;;20.40;75.60;;;;;;10336167;28;20199;-23
2021/07/21 16:55:42;;;;;;;5.90;5.30;;;20.50;75.70;;;;;;10336289;28;20219;-25
2021/07/21 17:01:05;;;;;;;6.60;5.23;;;20.40;75.50;;;;;;10342591;28;20194;-24
2021/07/21 17:06:27;;;;;;;10.27;5.43;;;20.40;75.70;;;;;;10374718;28;20210;-25
2021/07/21 17:11:51;;;;;;;7.40;5.57;;;20.40;75.70;;;;;;10394918;28;20202;-23
2021/07/21 17:17:13;;;;;;;6.60;5.63;;;20.40;75.70;;;;;;10414867;28;20221;-24
2021/07/21 17:22:35;;;;;;;5.83;4.60;;;20.40;75.70;;;;;;10401808;28;20199;-23
2021/07/21 17:27:58;;;;;;;5.60;5.10;;;20.40;75.70;;;;;;10374322;28;20222;-24
2021/07/21 17:33:21;;;;;;;5.83;5.20;;;20.40;75.70;;;;;;10373430;28;20206;-21
2021/07/21 17:38:44;;;;;;;6.57;5.80;;;20.40;75.70;;;;;;10373655;28;20265;-23
2021/07/21 17:44:07;;;;;;;6.13;4.83;;;20.40;75.90;;;;;;10374445;28;20740;-23
2021/07/21 17:49:29;;;;;;;5.90;5.30;;;20.40;75.80;;;;;;10373783;28;20194;-23
2021/07/21 17:54:52;;;;;;;6.20;5.53;;;20.40;75.80;;;;;;10373706;28;20229;-23
2021/07/21 18:00:17;;;;;;;6.27;5.10;;;20.40;75.90;;;;;;10372433;28;20218;-23
2021/07/21 18:05:39;;;;;;;6.03;5.23;;;20.40;76.00;;;;;;10370109;28;20229;-24
2021/07/21 18:11:02;;;;;;;6.27;5.40;;;20.40;75.90;;;;;;10378659;28;20226;-23
2021/07/21 18:16:25;;;;;;;6.00;5.40;;;20.40;76.00;;;;;;10371322;28;20229;-23
2021/07/21 18:21:47;;;;;;;5.93;5.33;;;20.40;76.00;;;;;;10387817;28;20573;-23
2021/07/21 18:27:10;;;;;;;6.37;5.17;;;20.40;76.10;;;;;;10413145;28;20222;-23
2021/07/21 18:32:34;;;;;;;6.00;5.20;;;20.40;76.10;;;;;;10406606;28;20199;-24
2021/07/21 18:37:56;;;;;;;6.10;5.03;;;20.40;76.10;;;;;;10370877;28;20253;-23
2021/07/21 18:43:19;;;;;;;6.00;5.20;;;20.40;76.10;;;;;;10371572;28;20202;-24
2021/07/21 18:48:42;;;;;;;6.30;5.37;;;20.40;76.10;;;;;;10370807;28;20365;-24
2021/07/21 18:54:04;;;;;;;6.53;5.50;;;20.40;76.30;;;;;;10367058;28;20222;-25
2021/07/21 18:59:26;;;;;;;6.23;5.10;;;20.40;76.20;;;;;;10365948;28;20226;-26
2021/07/21 19:04:50;;;;;;;6.17;5.27;;;20.40;76.20;;;;;;10355301;28;20222;-23
2021/07/21 19:10:13;;;;;;;6.80;5.70;;;20.40;76.20;;;;;;10381774;28;20202;-23
2021/07/21 19:15:36;;;;;;;7.73;5.80;;;20.40;76.50;;;;;;10383259;28;20229;-24
2021/07/21 19:20:59;;;;;;;6.13;5.53;;;20.40;76.60;;;;;;10362994;28;20595;-25
2021/07/21 19:26:21;;;;;;;8.30;6.10;;;20.40;76.60;;;;;;10362544;28;20233;-24
2021/07/21 19:31:43;;;;;;;8.57;6.13;;;20.40;76.80;;;;;;10361909;28;20197;-24
2021/07/21 19:37:07;;;;;;;7.93;6.13;;;20.40;77.30;;;;;;10360889;28;20229;-24
2021/07/21 19:42:29;;;;;;;8.80;6.37;;;20.40;77.40;;;;;;10364573;28;20279;-23
2021/07/21 19:47:51;;;;;;;7.80;6.90;;;20.40;77.50;;;;;;10376768;28;20592;-23
2021/07/21 19:53:14;;;;;;;10.00;7.50;;;20.40;77.50;;;;;;10368838;28;20684;-23
2021/07/21 19:58:37;;;;;;;10.37;7.40;;;20.40;77.50;;;;;;10366248;28;20218;-23
2021/07/21 20:03:59;;;;;;;10.40;7.63;;;20.40;77.40;;;;;;10366895;28;20201;-23
2021/07/21 20:09:24;;;;;;;8.17;7.07;;;20.40;77.50;;;;;;10375030;28;20199;-24
2021/07/21 20:14:46;;;;;;;9.33;7.37;;;20.40;77.50;;;;;;10387386;28;20737;-24
2021/07/21 20:20:10;;;;;;;10.57;8.10;;;20.30;77.50;;;;;;10368975;28;20218;-24
2021/07/21 20:25:34;;;;;;;9.50;8.10;;;20.30;77.40;;;;;;10367181;28;20248;-23
2021/07/21 20:30:56;;;;;;;11.17;7.67;;;20.30;77.40;;;;;;10367471;28;20699;-25
2021/07/21 20:36:18;;;;;;;10.03;7.60;;;20.30;77.50;;;;;;10374613;28;20836;-25
2021/07/21 20:41:42;;;;;;;12.50;8.80;;;20.30;77.60;;;;;;10373148;28;20669;-23
2021/07/21 20:47:04;;;;;;;14.57;9.33;;;20.30;77.50;;;;;;10374017;28;20704;-23
2021/07/21 20:52:26;;;;;;;13.03;9.63;;;20.30;77.50;;;;;;10375836;28;20205;-23
2021/07/21 20:57:50;;;;;;;12.33;8.97;;;20.30;77.50;;;;;;10376113;28;20222;-23
2021/07/21 21:03:12;;;;;;;9.63;8.40;;;20.30;77.70;;;;;;10373877;28;20190;-24
2021/07/21 21:08:35;;;;;;;10.43;8.30;;;20.30;77.70;;;;;;10355062;28;20214;-24
2021/07/21 21:13:58;;;;;;;10.33;7.73;;;20.30;77.80;;;;;;10414195;28;20209;-23
2021/07/21 21:19:20;;;;;;;9.63;7.87;;;20.30;77.90;;;;;;10400934;28;20218;-22
2021/07/21 21:24:43;;;;;;;11.90;8.60;;;20.30;77.90;;;;;;10403153;23;20225;-34
2021/07/21 21:30:09;;;;;;;8.90;7.93;;;20.30;77.90;;;;;;10446179;28;20197;-30
2021/07/21 21:35:31;;;;;;;9.17;7.57;;;20.30;77.90;;;;;;10431717;28;20225;-28
2021/07/21 21:40:53;;;;;;;11.50;7.93;;;20.30;77.90;;;;;;10415306;28;20681;-29
2021/07/21 21:46:17;;;;;;;9.33;7.27;;;20.30;77.80;;;;;;10413069;28;20222;-28
2021/07/21 21:51:39;;;;;;;9.20;7.67;;;20.30;77.80;;;;;;10413865;28;20202;-31
2021/07/21 21:57:01;;;;;;;9.10;7.87;;;20.20;77.70;;;;;;10409537;28;20221;-33
2021/07/21 22:02:25;;;;;;;9.00;7.80;;;20.20;77.50;;;;;;10383585;28;20197;-33
2021/07/21 22:07:49;;;;;;;10.07;7.37;;;20.20;77.50;;;;;;10413689;28;20639;-33
2021/07/21 22:13:12;;;;;;;9.90;7.10;;;20.30;77.50;;;;;;10373498;28;20205;-29
2021/07/21 22:18:38;;;;;;;9.90;7.80;;;20.20;77.30;;;;;;10403292;28;20237;-32
2021/07/21 22:24:03;;;;;;;9.03;7.70;;;20.20;77.20;;;;;;10412571;28;20675;-33
2021/07/21 22:29:26;;;;;;;11.33;7.67;;;20.20;77.20;;;;;;10411963;28;20221;-31
2021/07/21 22:34:49;;;;;;;10.27;7.03;;;20.20;77.10;;;;;;10411887;28;20213;-29
2021/07/21 22:40:13;;;;;;;10.10;7.53;;;20.20;77.00;;;;;;10450854;28;20219;-31
2021/07/21 22:45:36;;;;;;;11.10;7.90;;;20.20;76.90;;;;;;10452975;28;20217;-29
2021/07/21 22:50:59;;;;;;;7.67;6.87;;;20.20;76.60;;;;;;10452936;28;20185;-32
2021/07/21 22:56:23;;;;;;;10.17;8.20;;;20.20;76.70;;;;;;10451738;28;20217;-28
2021/07/21 23:02:04;;;;;;;9.07;7.50;;;20.20;76.60;;;;;;10452586;28;20192;-30
2021/07/21 23:08:03;;;;;;;10.97;7.83;;;20.20;76.50;;;;;;10442149;28;20222;-29
2021/07/21 23:14:02;;;;;;;11.20;8.13;;;20.20;76.40;;;;;;10401370;28;20206;-31
2021/07/21 23:19:26;;;;;;;9.93;7.93;;;20.20;76.40;;;;;;10410906;28;20236;-28
2021/07/21 23:24:48;;;;;;;10.60;7.63;;;20.20;76.20;;;;;;10409853;28;20695;-31
2021/07/21 23:30:11;;;;;;;8.40;7.37;;;20.20;76.20;;;;;;10411086;28;20198;-31
2021/07/21 23:35:36;;;;;;;9.63;8.10;;;20.20;76.00;;;;;;10411565;28;20217;-30
2021/07/21 23:40:58;;;;;;;10.00;7.67;;;20.20;75.70;;;;;;10448799;28;20712;-31
2021/07/21 23:46:20;;;;;;;10.63;7.97;;;20.10;75.50;;;;;;10451035;28;20696;-30
2021/07/21 23:51:44;;;;;;;9.00;7.93;;;20.10;75.30;;;;;;10449900;28;20193;-29
2021/07/21 23:57:06;;;;;;;9.30;7.87;;;20.10;75.20;;;;;;10450681;28;20220;-30
